Terminal Aerodrome Forecast
Issued by NWS Wilmington, OH

Current Version | Previous Version | Graphics & Text | Print | Product List | Glossary On
Versions: 1 2 3 4 5 6 7 8 9 10 11 12 13 14 15 16 17 18 19 20 21 22 23 24 25 26 27
043
FTUS41 KILN 162342
TAFILN
TAF
KILN 162342Z 1700/1724 14006KT 4SM -SHRA BR SCT008 OVC015
      TEMPO 1700/1702 1SM -SHRA OVC008
     FM170200 15007KT 5SM BR VCSH OVC008
     FM170500 16008KT 2SM -SHRA BR OVC005
     FM171500 23014KT P6SM OVC012
     FM171800 25014G22KT P6SM VCSH OVC025=

USA.gov is the U.S. government's official web portal to all federal, state and local government web resources and services.